Time;durP1;ratioP1;P1;durP2;ratioP2;P2;SDS_P1;SDS_P2;PMS_P1;PMS_P2;Temp;Humidity;BMP_temperature;BMP_pressure;BME280_temperature;BME280_humidity;BME280_pressure;Samples;Min_cycle;Max_cycle;Signal;HPM_P1;HPM_P2
2022/08/01 00:02:18;;;;;;;;;;;23.00;99.90;;;;;;5075660;28;19916;-83
2022/08/01 00:04:43;;;;;;;;;;;23.10;99.90;;;;;;5075668;28;19919;-83
2022/08/01 00:07:09;;;;;;;;;;;23.10;99.90;;;;;;5075489;28;19912;-80
2022/08/01 00:09:35;;;;;;;;;;;23.10;99.90;;;;;;5057526;28;19908;-81
2022/08/01 00:12:00;;;;;;;;;;;23.10;99.90;;;;;;5075478;28;20284;-79
2022/08/01 00:14:26;;;;;;;;;;;23.10;99.90;;;;;;5075413;28;19909;-79
2022/08/01 00:16:52;;;;;;;;;;;23.10;99.90;;;;;;5075483;28;19915;-79
2022/08/01 00:19:17;;;;;;;;;;;23.20;99.90;;;;;;5075477;28;20268;-80
2022/08/01 00:21:43;;;;;;;;;;;23.20;99.90;;;;;;5075321;28;20364;-81
2022/08/01 00:24:09;;;;;;;;;;;23.10;99.90;;;;;;5075055;28;19924;-81
2022/08/01 00:26:34;;;;;;;;;;;23.10;99.90;;;;;;5075085;28;20325;-82
2022/08/01 00:29:00;;;;;;;;;;;23.10;99.90;;;;;;5075087;28;20019;-83
2022/08/01 00:31:25;;;;;;;;;;;23.10;99.90;;;;;;5075208;28;20003;-80
2022/08/01 00:33:51;;;;;;;;;;;23.10;99.90;;;;;;5075539;28;19908;-80
2022/08/01 00:36:16;;;;;;;;;;;23.10;99.90;;;;;;5074895;28;19915;-83
2022/08/01 00:38:42;;;;;;;;;;;23.00;99.90;;;;;;5075095;28;19915;-84
2022/08/01 00:41:08;;;;;;;;;;;22.90;99.90;;;;;;5075069;28;19915;-82
2022/08/01 00:43:33;;;;;;;;;;;22.80;99.90;;;;;;5053242;28;19921;-82
2022/08/01 00:45:59;;;;;;;;;;;22.90;99.90;;;;;;5054780;28;19964;-78
2022/08/01 00:48:24;;;;;;;;;;;22.90;99.90;;;;;;5055010;28;19932;-82
2022/08/01 00:50:50;;;;;;;;;;;22.80;99.90;;;;;;5054907;28;19916;-82
2022/08/01 00:53:15;;;;;;;;;;;22.90;99.90;;;;;;5054826;28;20373;-82
2022/08/01 00:55:42;;;;;;;;;;;22.90;99.90;;;;;;5054783;28;19915;-82
2022/08/01 00:58:07;;;;;;;;;;;22.90;99.90;;;;;;5054627;28;19955;-82
2022/08/01 01:00:35;;;;;;;;;;;22.80;99.90;;;;;;5054461;28;19936;-80
2022/08/01 01:03:01;;;;;;;;;;;22.70;99.90;;;;;;5054391;28;20289;-79
2022/08/01 01:05:26;;;;;;;;;;;22.70;99.90;;;;;;5054336;28;19909;-82
2022/08/01 01:07:54;;;;;;;;;;;22.50;99.90;;;;;;5054299;28;19999;-82
2022/08/01 01:10:20;;;;;;;;;;;22.60;99.90;;;;;;5054463;28;20361;-81
2022/08/01 01:12:59;;;;;;;;;;;22.60;99.90;;;;;;5052968;28;19916;-81
2022/08/01 01:15:41;;;;;;;;;;;22.60;99.90;;;;;;5054393;28;19908;-81
2022/08/01 01:18:06;;;;;;;;;;;22.70;99.90;;;;;;5054147;28;19916;-80
2022/08/01 01:20:42;;;;;;;;;;;22.70;99.90;;;;;;5054271;28;19909;-84
2022/08/01 01:23:23;;;;;;;;;;;22.50;99.90;;;;;;5054258;28;20399;-82
2022/08/01 01:26:02;;;;;;;;;;;22.40;99.90;;;;;;5053988;28;19909;-83
2022/08/01 01:28:41;;;;;;;;;;;22.40;99.90;;;;;;5054029;28;20377;-83
2022/08/01 01:31:08;;;;;;;;;;;22.30;99.90;;;;;;5054078;28;20370;-80
2022/08/01 01:33:36;;;;;;;;;;;22.10;99.90;;;;;;5054457;28;19915;-82
2022/08/01 01:36:04;;;;;;;;;;;22.00;99.90;;;;;;5054136;28;19913;-81
2022/08/01 01:38:33;;;;;;;;;;;22.00;99.90;;;;;;5053868;28;19955;-82
2022/08/01 01:40:59;;;;;;;;;;;22.30;99.90;;;;;;5053821;28;20008;-81
2022/08/01 01:43:26;;;;;;;;;;;22.20;99.90;;;;;;5059746;28;20399;-81
2022/08/01 01:45:54;;;;;;;;;;;22.40;99.90;;;;;;5073016;28;21335;-81
2022/08/01 01:48:21;;;;;;;;;;;22.40;99.90;;;;;;5073682;28;19919;-84
2022/08/01 01:50:47;;;;;;;;;;;22.30;99.90;;;;;;5074151;28;19909;-81
2022/08/01 01:53:15;;;;;;;;;;;22.40;99.90;;;;;;5073857;28;20287;-83
2022/08/01 01:55:41;;;;;;;;;;;22.30;99.90;;;;;;5073627;28;19915;-81
2022/08/01 01:58:08;;;;;;;;;;;22.40;99.90;;;;;;5073774;28;20276;-83
2022/08/01 02:00:34;;;;;;;;;;;22.10;99.90;;;;;;5073571;28;20042;-81
2022/08/01 02:03:01;;;;;;;;;;;22.00;99.90;;;;;;5073835;28;19963;-79
2022/08/01 02:05:27;;;;;;;;;;;22.00;99.90;;;;;;5073613;28;20281;-81
2022/08/01 02:07:53;;;;;;;;;;;22.00;99.90;;;;;;5073567;28;19943;-84
2022/08/01 02:10:19;;;;;;;;;;;22.10;99.90;;;;;;5073718;28;20253;-84
2022/08/01 02:12:45;;;;;;;;;;;22.30;99.90;;;;;;5073430;28;19908;-79
2022/08/01 02:15:12;;;;;;;;;;;22.30;99.90;;;;;;5073559;28;19915;-79
2022/08/01 02:17:41;;;;;;;;;;;22.20;99.90;;;;;;5076676;28;19923;-82
2022/08/01 02:20:07;;;;;;;;;;;22.10;99.90;;;;;;5077521;28;19908;-81
2022/08/01 02:22:36;;;;;;;;;;;22.20;99.90;;;;;;5077591;28;19931;-82
2022/08/01 02:25:05;;;;;;;;;;;22.20;99.90;;;;;;5077649;28;20003;-80
2022/08/01 02:27:34;;;;;;;;;;;22.10;99.90;;;;;;5077458;28;20026;-80
2022/08/01 02:30:01;;;;;;;;;;;22.10;99.90;;;;;;5059410;28;20300;-81
2022/08/01 02:32:31;;;;;;;;;;;22.20;99.90;;;;;;5077308;28;20327;-85
2022/08/01 02:34:57;;;;;;;;;;;22.10;99.90;;;;;;5059886;28;19908;-83
2022/08/01 02:37:24;;;;;;;;;;;21.90;99.90;;;;;;5077304;28;20276;-81
2022/08/01 02:39:51;;;;;;;;;;;21.90;99.90;;;;;;5077151;28;20011;-82
2022/08/01 02:42:18;;;;;;;;;;;22.10;99.90;;;;;;5077055;28;19908;-81
2022/08/01 02:44:44;;;;;;;;;;;22.00;99.90;;;;;;5076854;28;19924;-78
2022/08/01 02:47:10;;;;;;;;;;;22.00;99.90;;;;;;5076958;28;19916;-81
2022/08/01 02:49:38;;;;;;;;;;;22.00;99.90;;;;;;5076918;28;20062;-80
2022/08/01 02:52:06;;;;;;;;;;;22.00;99.90;;;;;;5076851;28;19915;-82
2022/08/01 02:54:32;;;;;;;;;;;22.10;99.90;;;;;;5076837;28;19944;-82
2022/08/01 02:56:58;;;;;;;;;;;22.00;99.90;;;;;;5076816;28;20369;-78
2022/08/01 02:59:26;;;;;;;;;;;21.90;99.90;;;;;;5076842;28;19909;-81
2022/08/01 03:01:54;;;;;;;;;;;21.80;99.90;;;;;;5076790;28;20384;-80
2022/08/01 03:04:20;;;;;;;;;;;21.70;99.90;;;;;;5076593;28;19924;-78
2022/08/01 03:06:46;;;;;;;;;;;21.70;99.90;;;;;;5076662;28;20301;-81
2022/08/01 03:09:12;;;;;;;;;;;21.70;99.90;;;;;;5076901;28;20372;-84
2022/08/01 03:11:39;;;;;;;;;;;21.80;99.90;;;;;;5076620;28;20407;-82
2022/08/01 03:14:07;;;;;;;;;;;21.80;99.90;;;;;;5076549;28;19908;-80
2022/08/01 03:16:33;;;;;;;;;;;21.90;99.90;;;;;;5076801;28;19909;-82
2022/08/01 03:19:01;;;;;;;;;;;21.90;99.90;;;;;;5076399;28;19957;-80
2022/08/01 03:21:27;;;;;;;;;;;21.60;99.90;;;;;;5076475;28;19966;-79
2022/08/01 03:23:56;;;;;;;;;;;21.50;99.90;;;;;;5076279;28;19913;-81
2022/08/01 03:26:28;;;;;;;;;;;21.50;99.90;;;;;;5076273;28;19909;-83
2022/08/01 03:28:59;;;;;;;;;;;21.50;99.90;;;;;;5074996;28;20284;-82
2022/08/01 03:31:25;;;;;;;;;;;21.60;99.90;;;;;;5076220;28;20007;-80
2022/08/01 03:33:51;;;;;;;;;;;21.80;99.90;;;;;;5076653;28;19908;-81
2022/08/01 03:36:20;;;;;;;;;;;21.90;99.90;;;;;;5057907;28;19915;-78
2022/08/01 03:38:47;;;;;;;;;;;21.80;99.90;;;;;;5076161;28;19909;-78
2022/08/01 03:41:15;;;;;;;;;;;21.80;99.90;;;;;;5075939;28;19908;-81
2022/08/01 03:43:45;;;;;;;;;;;21.90;99.90;;;;;;5075716;28;19942;-83
2022/08/01 03:46:16;;;;;;;;;;;21.70;99.90;;;;;;5075949;28;19912;-82
2022/08/01 03:48:43;;;;;;;;;;;21.70;99.90;;;;;;5076163;28;19908;-78
2022/08/01 03:51:10;;;;;;;;;;;21.70;99.90;;;;;;5076062;28;19920;-80
2022/08/01 03:53:36;;;;;;;;;;;21.70;99.90;;;;;;5075819;28;19908;-81
2022/08/01 03:56:02;;;;;;;;;;;21.70;99.90;;;;;;5057755;28;19995;-84
2022/08/01 03:58:29;;;;;;;;;;;21.70;99.90;;;;;;5075728;28;19947;-78
2022/08/01 04:00:55;;;;;;;;;;;21.80;99.90;;;;;;5075651;28;19915;-82
2022/08/01 04:03:21;;;;;;;;;;;21.70;99.90;;;;;;5075818;28;20356;-81
2022/08/01 04:05:46;;;;;;;;;;;21.80;99.90;;;;;;5075559;28;19908;-84
2022/08/01 04:08:12;;;;;;;;;;;21.80;99.90;;;;;;5075528;28;19908;-80
2022/08/01 04:10:38;;;;;;;;;;;21.90;99.90;;;;;;5075481;28;19915;-83
2022/08/01 04:13:04;;;;;;;;;;;21.90;99.90;;;;;;5075529;28;19912;-80
2022/08/01 04:15:29;;;;;;;;;;;21.80;99.90;;;;;;5057166;28;19916;-82
2022/08/01 04:17:55;;;;;;;;;;;22.00;99.90;;;;;;5075325;28;19913;-82
2022/08/01 04:20:21;;;;;;;;;;;21.90;99.90;;;;;;5075835;28;20391;-81
2022/08/01 04:22:46;;;;;;;;;;;21.80;99.90;;;;;;5075162;28;19909;-79
2022/08/01 04:25:33;;;;;;;;;;;21.70;99.90;;;;;;5075191;28;20298;-81
2022/08/01 04:28:00;;;;;;;;;;;21.80;99.90;;;;;;5057167;28;19957;-84
2022/08/01 04:30:26;;;;;;;;;;;21.70;99.90;;;;;;5075076;28;20383;-84
2022/08/01 04:32:54;;;;;;;;;;;21.80;99.90;;;;;;5074982;28;19940;-81
2022/08/01 04:35:20;;;;;;;;;;;21.80;99.90;;;;;;5075778;28;19928;-79
2022/08/01 04:37:48;;;;;;;;;;;21.90;99.90;;;;;;5074941;28;19915;-79
2022/08/01 04:40:14;;;;;;;;;;;22.00;99.90;;;;;;5074694;28;20414;-82
2022/08/01 04:42:40;;;;;;;;;;;21.90;99.90;;;;;;5074747;28;19975;-83
2022/08/01 04:45:08;;;;;;;;;;;21.80;99.90;;;;;;5074776;28;19921;-80
2022/08/01 04:47:34;;;;;;;;;;;21.70;99.90;;;;;;5074588;28;19991;-80
2022/08/01 04:50:00;;;;;;;;;;;21.70;99.90;;;;;;5074737;28;19912;-84
2022/08/01 04:52:32;;;;;;;;;;;21.70;99.90;;;;;;5056710;28;20420;-82
2022/08/01 04:54:57;;;;;;;;;;;21.80;99.90;;;;;;5074726;28;19915;-81
2022/08/01 04:57:23;;;;;;;;;;;21.90;99.90;;;;;;5074562;28;19908;-78
2022/08/01 04:59:51;;;;;;;;;;;21.80;99.90;;;;;;5056506;28;20424;-80
2022/08/01 05:02:18;;;;;;;;;;;21.80;99.90;;;;;;5074632;28;20007;-81
2022/08/01 05:04:44;;;;;;;;;;;21.80;99.90;;;;;;5074464;28;19912;-80
2022/08/01 05:07:10;;;;;;;;;;;21.80;99.90;;;;;;5074350;28;20319;-81
2022/08/01 05:09:36;;;;;;;;;;;21.70;99.90;;;;;;5074320;28;19909;-81
2022/08/01 05:12:02;;;;;;;;;;;21.70;99.90;;;;;;5074312;28;20483;-82
2022/08/01 05:14:31;;;;;;;;;;;21.80;99.90;;;;;;5074198;28;19908;-82
2022/08/01 05:16:57;;;;;;;;;;;21.60;99.90;;;;;;5074141;28;19944;-80
2022/08/01 05:19:23;;;;;;;;;;;21.50;99.90;;;;;;5074121;28;19908;-80
2022/08/01 05:21:48;;;;;;;;;;;21.50;99.90;;;;;;5074133;28;19979;-80
2022/08/01 05:24:14;;;;;;;;;;;21.40;99.90;;;;;;5074123;28;19919;-81
2022/08/01 05:26:39;;;;;;;;;;;21.30;99.90;;;;;;5074190;28;20012;-82
2022/08/01 05:29:05;;;;;;;;;;;21.40;99.90;;;;;;5073974;28;20296;-83
2022/08/01 05:31:33;;;;;;;;;;;21.40;99.90;;;;;;5073924;28;19908;-81
2022/08/01 05:34:00;;;;;;;;;;;21.40;99.90;;;;;;5073918;28;19916;-79
2022/08/01 05:36:25;;;;;;;;;;;21.50;99.90;;;;;;5074541;28;20360;-81
2022/08/01 05:38:51;;;;;;;;;;;21.70;99.90;;;;;;5073859;28;19908;-82
2022/08/01 05:41:16;;;;;;;;;;;21.70;99.90;;;;;;5073748;28;20261;-78
2022/08/01 05:43:42;;;;;;;;;;;21.80;99.90;;;;;;5073433;28;20018;-79
2022/08/01 05:46:08;;;;;;;;;;;21.90;99.90;;;;;;5074121;28;19913;-81
2022/08/01 05:48:33;;;;;;;;;;;22.00;99.90;;;;;;5073683;28;20283;-82
2022/08/01 05:50:59;;;;;;;;;;;22.10;99.90;;;;;;5073068;28;19912;-80
2022/08/01 05:53:25;;;;;;;;;;;22.00;99.90;;;;;;5073663;28;19948;-77
2022/08/01 05:55:50;;;;;;;;;;;22.10;99.90;;;;;;5073675;28;19912;-84
2022/08/01 05:58:16;;;;;;;;;;;22.10;99.90;;;;;;5073635;28;19916;-85
2022/08/01 06:00:41;;;;;;;;;;;22.00;99.90;;;;;;5073628;28;19931;-80
2022/08/01 06:03:07;;;;;;;;;;;22.10;99.90;;;;;;5055594;28;19958;-80
2022/08/01 06:05:32;;;;;;;;;;;22.10;99.90;;;;;;5073570;28;19931;-84
2022/08/01 06:07:58;;;;;;;;;;;22.00;99.90;;;;;;5074006;28;19942;-82
2022/08/01 06:10:24;;;;;;;;;;;22.00;99.90;;;;;;5073600;28;20284;-81
2022/08/01 06:12:49;;;;;;;;;;;22.00;99.90;;;;;;5073511;28;20007;-82
2022/08/01 06:15:15;;;;;;;;;;;22.10;99.90;;;;;;5073678;28;19908;-79
2022/08/01 06:17:41;;;;;;;;;;;22.00;99.90;;;;;;5073399;28;19908;-83
2022/08/01 06:20:07;;;;;;;;;;;22.00;99.90;;;;;;5073423;28;19909;-83
2022/08/01 06:22:32;;;;;;;;;;;22.10;99.90;;;;;;5073322;28;20357;-80
2022/08/01 06:24:58;;;;;;;;;;;22.10;99.90;;;;;;5073527;28;19919;-79
2022/08/01 06:27:26;;;;;;;;;;;22.10;99.90;;;;;;5073371;28;19909;-82
2022/08/01 06:29:55;;;;;;;;;;;22.00;99.90;;;;;;5073382;28;19908;-80
2022/08/01 06:32:22;;;;;;;;;;;21.80;99.90;;;;;;5073324;28;19912;-80
2022/08/01 06:34:48;;;;;;;;;;;21.90;99.90;;;;;;5073790;28;19958;-82
2022/08/01 06:37:14;;;;;;;;;;;21.60;99.90;;;;;;5073334;28;19962;-76
2022/08/01 06:39:40;;;;;;;;;;;21.60;99.90;;;;;;5073318;28;19983;-78
2022/08/01 06:42:05;;;;;;;;;;;21.60;99.90;;;;;;5073208;28;20281;-80
2022/08/01 06:44:31;;;;;;;;;;;21.60;99.90;;;;;;5072704;28;19927;-80
2022/08/01 06:46:58;;;;;;;;;;;21.70;99.90;;;;;;5073290;28;20285;-81
2022/08/01 06:49:24;;;;;;;;;;;21.80;99.90;;;;;;5073135;28;20001;-80
2022/08/01 06:51:49;;;;;;;;;;;21.80;99.90;;;;;;5073130;28;19915;-82
2022/08/01 06:54:15;;;;;;;;;;;21.80;99.90;;;;;;5073054;28;19909;-80
2022/08/01 06:56:41;;;;;;;;;;;22.10;99.90;;;;;;5073052;28;19915;-78
2022/08/01 06:59:07;;;;;;;;;;;22.20;99.90;;;;;;5073165;28;19912;-79
2022/08/01 07:01:33;;;;;;;;;;;22.30;99.90;;;;;;5072930;28;19908;-78
2022/08/01 07:03:58;;;;;;;;;;;22.50;99.90;;;;;;5076279;28;20003;-80
2022/08/01 07:06:25;;;;;;;;;;;22.60;99.90;;;;;;5076654;28;19930;-81
2022/08/01 07:08:51;;;;;;;;;;;22.70;99.90;;;;;;5058661;28;19912;-81
2022/08/01 07:11:17;;;;;;;;;;;22.50;99.90;;;;;;5076787;28;19909;-79
2022/08/01 07:13:42;;;;;;;;;;;22.40;99.90;;;;;;5076463;28;19977;-79
2022/08/01 07:16:08;;;;;;;;;;;22.40;99.90;;;;;;5076499;28;20021;-78
2022/08/01 07:18:33;;;;;;;;;;;22.60;99.90;;;;;;5076577;28;20442;-81
2022/08/01 07:20:59;;;;;;;;;;;23.00;99.90;;;;;;5076414;28;19920;-81
2022/08/01 07:23:25;;;;;;;;;;;23.30;99.90;;;;;;5076223;28;19999;-77
2022/08/01 07:25:52;;;;;;;;;;;23.30;99.90;;;;;;5076283;28;20368;-82
2022/08/01 07:28:18;;;;;;;;;;;23.10;99.90;;;;;;5076445;28;20392;-81
2022/08/01 07:30:44;;;;;;;;;;;23.30;99.90;;;;;;5076520;28;19947;-81
2022/08/01 07:33:09;;;;;;;;;;;23.50;99.90;;;;;;5076204;28;19919;-83
2022/08/01 07:35:37;;;;;;;;;;;23.60;99.90;;;;;;5076684;28;20003;-80
2022/08/01 07:38:04;;;;;;;;;;;23.80;99.90;;;;;;5076120;28;20315;-79
2022/08/01 07:40:29;;;;;;;;;;;24.00;99.90;;;;;;5076040;28;19908;-81
2022/08/01 07:42:55;;;;;;;;;;;24.10;99.90;;;;;;5075727;28;20383;-83
2022/08/01 07:45:21;;;;;;;;;;;24.00;99.90;;;;;;5076074;28;20292;-81
2022/08/01 07:47:46;;;;;;;;;;;23.80;99.90;;;;;;5075822;28;19916;-77
2022/08/01 07:50:12;;;;;;;;;;;23.70;99.90;;;;;;5076009;28;19931;-82
2022/08/01 07:52:38;;;;;;;;;;;23.90;99.90;;;;;;5075913;28;20257;-82
2022/08/01 07:55:04;;;;;;;;;;;24.10;99.90;;;;;;5075737;28;19908;-82
2022/08/01 07:57:29;;;;;;;;;;;24.30;99.90;;;;;;5075690;28;19995;-83
2022/08/01 07:59:55;;;;;;;;;;;24.60;99.90;;;;;;5075699;28;19957;-83
2022/08/01 08:02:21;;;;;;;;;;;24.50;99.90;;;;;;5075582;28;19908;-80
2022/08/01 08:04:46;;;;;;;;;;;24.60;99.90;;;;;;5075596;28;19912;-81
2022/08/01 08:07:12;;;;;;;;;;;24.30;99.90;;;;;;5075529;28;19994;-82
2022/08/01 08:09:37;;;;;;;;;;;24.50;99.90;;;;;;5075556;28;19915;-82
2022/08/01 08:12:03;;;;;;;;;;;24.70;99.90;;;;;;5075436;28;19931;-82
2022/08/01 08:14:29;;;;;;;;;;;25.60;97.90;;;;;;5074744;28;19958;-82
2022/08/01 08:16:55;;;;;;;;;;;25.60;97.10;;;;;;5075376;28;20317;-79
2022/08/01 08:19:20;;;;;;;;;;;25.80;95.80;;;;;;5075425;28;20391;-81
2022/08/01 08:21:46;;;;;;;;;;;26.30;96.20;;;;;;5075572;28;19908;-84
2022/08/01 08:24:20;;;;;;;;;;;27.30;93.00;;;;;;5075106;28;19912;-83
2022/08/01 08:26:50;;;;;;;;;;;27.50;91.10;;;;;;5075185;28;19916;-82
2022/08/01 08:29:16;;;;;;;;;;;28.00;90.20;;;;;;5075357;28;20344;-80
2022/08/01 08:31:42;;;;;;;;;;;28.70;87.30;;;;;;5075367;28;19940;-81
2022/08/01 08:34:07;;;;;;;;;;;28.20;84.40;;;;;;5075136;28;19914;-82
2022/08/01 08:36:33;;;;;;;;;;;27.60;86.00;;;;;;5075543;28;19977;-83
2022/08/01 08:39:01;;;;;;;;;;;27.20;89.20;;;;;;5074854;28;19944;-80
2022/08/01 08:41:28;;;;;;;;;;;27.70;86.20;;;;;;5075228;28;19908;-82
2022/08/01 08:43:56;;;;;;;;;;;27.70;85.90;;;;;;5074470;28;19921;-81
2022/08/01 08:46:22;;;;;;;;;;;28.10;85.30;;;;;;5074702;28;19971;-80
2022/08/01 08:48:48;;;;;;;;;;;28.20;84.50;;;;;;5074664;28;19909;-83
2022/08/01 08:51:16;;;;;;;;;;;28.40;83.00;;;;;;5074591;28;20387;-84
2022/08/01 08:53:43;;;;;;;;;;;27.40;85.60;;;;;;5074613;28;19931;-80
2022/08/01 08:56:11;;;;;;;;;;;27.30;86.90;;;;;;5074530;28;19912;-82
2022/08/01 08:58:38;;;;;;;;;;;27.90;86.50;;;;;;5074744;28;20422;-81
2022/08/01 09:01:08;;;;;;;;;;;27.60;86.30;;;;;;5074525;28;20280;-81
2022/08/01 09:03:34;;;;;;;;;;;28.10;84.70;;;;;;5074565;28;20296;-79
2022/08/01 09:06:00;;;;;;;;;;;27.70;85.00;;;;;;5074589;28;20362;-84
2022/08/01 09:08:26;;;;;;;;;;;27.30;86.10;;;;;;5074398;28;19908;-79
2022/08/01 09:10:51;;;;;;;;;;;27.00;87.40;;;;;;5074248;28;20344;-80
2022/08/01 09:13:17;;;;;;;;;;;27.10;86.40;;;;;;5074206;28;20396;-83
2022/08/01 09:15:44;;;;;;;;;;;27.00;88.00;;;;;;5074449;28;19912;-82
2022/08/01 09:18:28;;;;;;;;;;;27.80;86.00;;;;;;5056573;28;20341;-80
2022/08/01 09:21:06;;;;;;;;;;;28.30;83.30;;;;;;5074112;28;19931;-85
2022/08/01 09:23:44;;;;;;;;;;;28.50;82.60;;;;;;5074180;28;20304;-84
2022/08/01 09:26:10;;;;;;;;;;;28.00;82.80;;;;;;5073700;28;19970;-82
2022/08/01 09:28:36;;;;;;;;;;;27.40;83.60;;;;;;5073985;28;19908;-79
2022/08/01 09:31:19;;;;;;;;;;;27.30;85.30;;;;;;5073925;28;19908;-80
2022/08/01 09:34:03;;;;;;;;;;;27.40;85.80;;;;;;5074065;28;20325;-78
2022/08/01 09:36:46;;;;;;;;;;;28.40;83.30;;;;;;5074494;28;19909;-81
2022/08/01 09:39:13;;;;;;;;;;;28.50;80.40;;;;;;5073825;28;19912;-82
2022/08/01 09:41:39;;;;;;;;;;;28.80;80.10;;;;;;5074011;28;19908;-80
2022/08/01 09:44:04;;;;;;;;;;;29.20;79.50;;;;;;5073597;28;19921;-80
2022/08/01 09:46:30;;;;;;;;;;;29.60;76.10;;;;;;5073865;28;19927;-79
2022/08/01 09:48:57;;;;;;;;;;;29.70;77.10;;;;;;5073669;28;20368;-83
2022/08/01 09:51:36;;;;;;;;;;;29.80;75.50;;;;;;5073729;28;19915;-79
2022/08/01 09:54:06;;;;;;;;;;;30.00;75.80;;;;;;5073803;28;19958;-84
2022/08/01 09:56:38;;;;;;;;;;;30.20;74.50;;;;;;5073730;28;19965;-81
2022/08/01 09:59:04;;;;;;;;;;;30.20;73.80;;;;;;5074182;28;19912;-81
2022/08/01 10:01:42;;;;;;;;;;;29.90;73.00;;;;;;5073838;28;20001;-84
2022/08/01 10:04:09;;;;;;;;;;;29.50;74.90;;;;;;5073698;28;20004;-82
2022/08/01 10:06:36;;;;;;;;;;;29.90;73.80;;;;;;5073568;28;20431;-82
2022/08/01 10:09:02;;;;;;;;;;;29.50;74.10;;;;;;5073510;28;19909;-81
2022/08/01 10:11:28;;;;;;;;;;;29.20;74.80;;;;;;5073838;28;19916;-81
2022/08/01 10:13:55;;;;;;;;;;;29.20;75.30;;;;;;5073503;28;19908;-81
2022/08/01 10:16:21;;;;;;;;;;;29.10;75.20;;;;;;5055450;28;20383;-85
2022/08/01 10:18:47;;;;;;;;;;;29.20;75.70;;;;;;5073356;28;19909;-79
2022/08/01 10:21:13;;;;;;;;;;;28.20;76.20;;;;;;5073367;28;19914;-84
2022/08/01 10:23:38;;;;;;;;;;;28.40;77.50;;;;;;5073260;28;19919;-82
2022/08/01 10:26:05;;;;;;;;;;;28.50;77.40;;;;;;5073479;28;19991;-83
2022/08/01 10:28:32;;;;;;;;;;;29.20;76.10;;;;;;5073487;28;19913;-82
2022/08/01 10:30:58;;;;;;;;;;;29.10;74.90;;;;;;5073310;28;20266;-82
2022/08/01 10:33:24;;;;;;;;;;;28.40;76.20;;;;;;5073318;28;19931;-81
2022/08/01 10:35:50;;;;;;;;;;;28.70;77.20;;;;;;5055706;28;20396;-81
2022/08/01 10:38:16;;;;;;;;;;;28.80;75.90;;;;;;5075583;28;19917;-78
2022/08/01 10:40:42;;;;;;;;;;;29.10;75.90;;;;;;5077338;28;20360;-81
2022/08/01 10:43:12;;;;;;;;;;;29.90;74.20;;;;;;5076833;28;19916;-84
2022/08/01 10:45:39;;;;;;;;;;;29.70;73.20;;;;;;5077124;28;19908;-84
2022/08/01 10:48:23;;;;;;;;;;;29.90;73.70;;;;;;5076958;28;20261;-81
2022/08/01 10:50:49;;;;;;;;;;;29.70;73.30;;;;;;5076923;28;19909;-82
2022/08/01 10:53:19;;;;;;;;;;;30.50;71.20;;;;;;5076877;28;19908;-82
2022/08/01 10:55:45;;;;;;;;;;;31.00;71.00;;;;;;5077124;28;19999;-80
2022/08/01 10:58:11;;;;;;;;;;;31.90;69.30;;;;;;5076776;28;19994;-81
2022/08/01 11:00:37;;;;;;;;;;;31.90;68.10;;;;;;5076907;28;20315;-82
2022/08/01 11:03:03;;;;;;;;;;;31.80;68.10;;;;;;5076617;28;19909;-81
2022/08/01 11:05:31;;;;;;;;;;;31.00;68.30;;;;;;5076673;28;19948;-83
2022/08/01 11:07:58;;;;;;;;;;;31.40;68.50;;;;;;5076631;28;19915;-84
2022/08/01 11:10:35;;;;;;;;;;;30.80;69.20;;;;;;5076615;28;19912;-84
2022/08/01 11:13:03;;;;;;;;;;;30.70;70.10;;;;;;5076591;28;19944;-85
2022/08/01 11:15:29;;;;;;;;;;;30.90;68.70;;;;;;5076536;28;19916;-80
2022/08/01 11:17:55;;;;;;;;;;;31.60;68.70;;;;;;5076659;28;19913;-81
2022/08/01 11:20:44;;;;;;;;;;;32.80;67.10;;;;;;5076604;28;19939;-84
2022/08/01 11:23:12;;;;;;;;;;;34.50;63.50;;;;;;5074705;28;19912;-82
2022/08/01 11:25:38;;;;;;;;;;;33.60;63.00;;;;;;5076603;28;20372;-85
2022/08/01 11:28:16;;;;;;;;;;;33.40;63.20;;;;;;5076469;28;19971;-80
2022/08/01 11:30:52;;;;;;;;;;;33.00;63.20;;;;;;5076292;28;19959;-83
2022/08/01 11:33:37;;;;;;;;;;;32.80;63.60;;;;;;5076201;28;19916;-82
2022/08/01 11:36:12;;;;;;;;;;;32.50;64.00;;;;;;5077115;28;19951;-84
2022/08/01 11:38:39;;;;;;;;;;;31.50;65.90;;;;;;5076102;28;19909;-80
2022/08/01 11:41:11;;;;;;;;;;;31.30;67.00;;;;;;5076076;28;19971;-87
2022/08/01 11:43:55;;;;;;;;;;;32.80;64.80;;;;;;5075923;28;20011;-83
2022/08/01 11:46:40;;;;;;;;;;;33.40;63.80;;;;;;5075994;28;19999;-81
2022/08/01 11:49:23;;;;;;;;;;;33.60;62.60;;;;;;5074870;28;19909;-84
2022/08/01 11:51:56;;;;;;;;;;;35.50;62.30;;;;;;5075853;28;19958;-82
2022/08/01 11:54:24;;;;;;;;;;;35.80;58.70;;;;;;5076004;28;19909;-84
2022/08/01 11:56:53;;;;;;;;;;;35.60;58.70;;;;;;5075996;28;20431;-82
2022/08/01 11:59:19;;;;;;;;;;;35.00;58.70;;;;;;5075747;28;19991;-83
2022/08/01 12:01:44;;;;;;;;;;;34.50;59.40;;;;;;5076154;28;19951;-81
2022/08/01 12:04:10;;;;;;;;;;;35.10;59.60;;;;;;5075819;28;19923;-81
2022/08/01 12:06:36;;;;;;;;;;;38.30;57.60;;;;;;5075578;28;20388;-79
2022/08/01 12:09:18;;;;;;;;;;;41.10;52.60;;;;;;5075754;28;19910;-80
2022/08/01 12:11:44;;;;;;;;;;;39.60;52.60;;;;;;5075508;28;19913;-79
2022/08/01 12:14:14;;;;;;;;;;;41.80;51.90;;;;;;5075613;28;20270;-80
2022/08/01 12:16:40;;;;;;;;;;;41.60;48.30;;;;;;5075691;28;19920;-82
2022/08/01 12:19:06;;;;;;;;;;;40.00;50.50;;;;;;5075229;28;20372;-83
2022/08/01 12:21:32;;;;;;;;;;;38.10;50.50;;;;;;5075235;28;19974;-77
2022/08/01 12:24:01;;;;;;;;;;;37.90;53.50;;;;;;5075523;28;20364;-83
2022/08/01 12:26:42;;;;;;;;;;;41.50;50.10;;;;;;5075402;28;19915;-79
2022/08/01 12:29:07;;;;;;;;;;;40.60;49.40;;;;;;5075191;28;19916;-82
2022/08/01 12:31:34;;;;;;;;;;;42.50;48.80;;;;;;5075116;28;19909;-83
2022/08/01 12:34:19;;;;;;;;;;;45.60;46.50;;;;;;5075514;28;19915;-81
2022/08/01 12:36:46;;;;;;;;;;;44.10;44.80;;;;;;5075393;28;20061;-80
2022/08/01 12:39:11;;;;;;;;;;;43.50;45.80;;;;;;5074892;28;19939;-83
2022/08/01 12:41:37;;;;;;;;;;;43.00;45.20;;;;;;5074899;28;19998;-84
2022/08/01 12:44:03;;;;;;;;;;;40.10;47.50;;;;;;5074635;28;20304;-85
2022/08/01 12:46:28;;;;;;;;;;;42.50;47.50;;;;;;5074766;28;20357;-80
2022/08/01 12:48:54;;;;;;;;;;;44.50;45.00;;;;;;5074712;28;19909;-81
2022/08/01 12:51:20;;;;;;;;;;;42.60;44.90;;;;;;5074739;28;19912;-83
2022/08/01 12:53:45;;;;;;;;;;;41.00;47.30;;;;;;5074591;28;19962;-82
2022/08/01 12:56:11;;;;;;;;;;;43.70;44.90;;;;;;5074504;28;19954;-80
2022/08/01 12:58:37;;;;;;;;;;;45.60;43.60;;;;;;5074468;28;19908;-82
2022/08/01 13:01:04;;;;;;;;;;;43.70;43.50;;;;;;5074265;28;19936;-79
2022/08/01 13:03:30;;;;;;;;;;;40.80;45.80;;;;;;5074490;28;19934;-81
2022/08/01 13:05:57;;;;;;;;;;;39.00;47.80;;;;;;5074423;28;19908;-81
2022/08/01 13:08:24;;;;;;;;;;;39.30;48.30;;;;;;5074325;28;19944;-83
2022/08/01 13:10:59;;;;;;;;;;;40.40;46.90;;;;;;5074323;28;19909;-81
2022/08/01 13:13:36;;;;;;;;;;;41.90;46.10;;;;;;5074407;28;19947;-82
2022/08/01 13:16:04;;;;;;;;;;;40.10;46.30;;;;;;5074226;28;20364;-81
2022/08/01 13:18:30;;;;;;;;;;;38.10;48.50;;;;;;5074346;28;19916;-81
2022/08/01 13:21:16;;;;;;;;;;;39.50;48.50;;;;;;5074062;28;20277;-84
2022/08/01 13:24:03;;;;;;;;;;;41.30;46.80;;;;;;5073984;28;19919;-83
2022/08/01 13:26:45;;;;;;;;;;;42.20;45.40;;;;;;5074008;28;19916;-81
2022/08/01 13:29:12;;;;;;;;;;;42.60;43.90;;;;;;5073958;28;19969;-81
2022/08/01 13:31:38;;;;;;;;;;;43.50;44.70;;;;;;5074063;28;19947;-84
2022/08/01 13:34:04;;;;;;;;;;;44.00;43.60;;;;;;5073877;28;19909;-82
2022/08/01 13:36:31;;;;;;;;;;;44.90;43.50;;;;;;5074446;28;19912;-83
2022/08/01 13:41:41;;;;;;;;;;;42.30;44.10;;;;;;5073891;28;19919;-81
2022/08/01 13:44:08;;;;;;;;;;;40.00;45.90;;;;;;5073460;28;19920;-83
2022/08/01 13:46:34;;;;;;;;;;;38.40;47.20;;;;;;5055771;28;19952;-81
2022/08/01 13:49:00;;;;;;;;;;;39.60;47.90;;;;;;5073730;28;19916;-81
2022/08/01 13:51:26;;;;;;;;;;;40.10;46.90;;;;;;5073662;28;19908;-81
2022/08/01 13:53:51;;;;;;;;;;;40.40;46.30;;;;;;5073716;28;19959;-82
2022/08/01 13:56:17;;;;;;;;;;;40.90;46.00;;;;;;5073710;28;20297;-83
2022/08/01 13:58:43;;;;;;;;;;;38.10;46.60;;;;;;5073813;28;19935;-83
2022/08/01 14:01:08;;;;;;;;;;;36.60;50.00;;;;;;5073598;28;19909;-82
2022/08/01 14:03:34;;;;;;;;;;;38.10;48.90;;;;;;5073529;28;19978;-81
2022/08/01 14:06:00;;;;;;;;;;;39.10;47.80;;;;;;5073599;28;19991;-81
2022/08/01 14:08:25;;;;;;;;;;;39.30;47.70;;;;;;5073681;28;20322;-82
2022/08/01 14:10:53;;;;;;;;;;;38.40;48.10;;;;;;5073535;28;19908;-79
2022/08/01 14:13:19;;;;;;;;;;;38.30;48.40;;;;;;5078699;28;20369;-79
2022/08/01 14:15:44;;;;;;;;;;;39.40;47.70;;;;;;5080467;28;19916;-82
2022/08/01 14:18:10;;;;;;;;;;;39.10;47.50;;;;;;5080334;28;19920;-82
2022/08/01 14:20:37;;;;;;;;;;;39.10;47.80;;;;;;5080305;28;20404;-82
2022/08/01 14:23:02;;;;;;;;;;;39.30;47.60;;;;;;5080075;28;20262;-83